sensor_id;sensor_type;location;lat;lon;timestamp;P1;durP1;ratioP1;P2;durP2;ratioP2
21705;SDS011;11014;53.076;18.208;2024-01-15T00:01:45;18.08;;;10.40;;
21705;SDS011;11014;53.076;18.208;2024-01-15T00:04:15;11.15;;;8.05;;
21705;SDS011;11014;53.076;18.208;2024-01-15T00:06:44;12.98;;;8.25;;
21705;SDS011;11014;53.076;18.208;2024-01-15T00:09:12;13.20;;;8.40;;
21705;SDS011;11014;53.076;18.208;2024-01-15T00:11:41;11.07;;;5.85;;
21705;SDS011;11014;53.076;18.208;2024-01-15T00:14:10;16.08;;;8.05;;
21705;SDS011;11014;53.076;18.208;2024-01-15T00:16:40;12.85;;;7.22;;
21705;SDS011;11014;53.076;18.208;2024-01-15T00:19:09;13.10;;;7.40;;
21705;SDS011;11014;53.076;18.208;2024-01-15T00:21:37;13.05;;;8.52;;
21705;SDS011;11014;53.076;18.208;2024-01-15T00:24:06;15.95;;;10.13;;
21705;SDS011;11014;53.076;18.208;2024-01-15T00:26:35;15.15;;;9.38;;
21705;SDS011;11014;53.076;18.208;2024-01-15T00:29:03;17.02;;;9.35;;
21705;SDS011;11014;53.076;18.208;2024-01-15T00:31:32;10.75;;;7.32;;
21705;SDS011;11014;53.076;18.208;2024-01-15T00:34:00;11.50;;;7.43;;
21705;SDS011;11014;53.076;18.208;2024-01-15T00:36:30;11.98;;;8.30;;
21705;SDS011;11014;53.076;18.208;2024-01-15T00:38:59;15.48;;;9.38;;
21705;SDS011;11014;53.076;18.208;2024-01-15T00:41:28;12.95;;;7.90;;
21705;SDS011;11014;53.076;18.208;2024-01-15T00:43:56;12.27;;;7.05;;
21705;SDS011;11014;53.076;18.208;2024-01-15T00:46:25;11.68;;;7.65;;
21705;SDS011;11014;53.076;18.208;2024-01-15T00:48:54;10.13;;;5.45;;
21705;SDS011;11014;53.076;18.208;2024-01-15T00:51:23;16.33;;;9.57;;
21705;SDS011;11014;53.076;18.208;2024-01-15T00:53:51;15.38;;;9.10;;
21705;SDS011;11014;53.076;18.208;2024-01-15T00:56:20;5.68;;;4.00;;
21705;SDS011;11014;53.076;18.208;2024-01-15T00:58:48;10.07;;;6.15;;
21705;SDS011;11014;53.076;18.208;2024-01-15T01:01:17;13.85;;;8.88;;
21705;SDS011;11014;53.076;18.208;2024-01-15T01:03:45;12.30;;;7.75;;
21705;SDS011;11014;53.076;18.208;2024-01-15T01:06:14;10.02;;;7.07;;
21705;SDS011;11014;53.076;18.208;2024-01-15T01:08:43;12.45;;;8.27;;
21705;SDS011;11014;53.076;18.208;2024-01-15T01:11:15;9.32;;;6.07;;
21705;SDS011;11014;53.076;18.208;2024-01-15T01:13:44;11.32;;;7.13;;
21705;SDS011;11014;53.076;18.208;2024-01-15T01:16:13;12.57;;;7.53;;
21705;SDS011;11014;53.076;18.208;2024-01-15T01:18:41;13.07;;;7.70;;
21705;SDS011;11014;53.076;18.208;2024-01-15T01:21:10;12.18;;;6.78;;
21705;SDS011;11014;53.076;18.208;2024-01-15T01:23:39;11.77;;;7.60;;
21705;SDS011;11014;53.076;18.208;2024-01-15T01:26:08;14.55;;;9.80;;
21705;SDS011;11014;53.076;18.208;2024-01-15T01:28:36;11.10;;;8.13;;
21705;SDS011;11014;53.076;18.208;2024-01-15T01:31:05;11.35;;;7.40;;
21705;SDS011;11014;53.076;18.208;2024-01-15T01:33:33;11.18;;;7.55;;
21705;SDS011;11014;53.076;18.208;2024-01-15T01:36:06;14.82;;;8.68;;
21705;SDS011;11014;53.076;18.208;2024-01-15T01:38:39;9.27;;;6.03;;
21705;SDS011;11014;53.076;18.208;2024-01-15T01:41:09;11.07;;;6.18;;
21705;SDS011;11014;53.076;18.208;2024-01-15T01:43:38;11.30;;;7.85;;
21705;SDS011;11014;53.076;18.208;2024-01-15T01:46:06;9.73;;;6.00;;
21705;SDS011;11014;53.076;18.208;2024-01-15T01:48:36;8.55;;;5.88;;
21705;SDS011;11014;53.076;18.208;2024-01-15T01:51:05;10.18;;;6.30;;
21705;SDS011;11014;53.076;18.208;2024-01-15T01:53:34;11.20;;;7.47;;
21705;SDS011;11014;53.076;18.208;2024-01-15T01:56:03;9.50;;;6.13;;
21705;SDS011;11014;53.076;18.208;2024-01-15T01:58:33;10.60;;;5.78;;
21705;SDS011;11014;53.076;18.208;2024-01-15T02:01:04;9.18;;;5.30;;
21705;SDS011;11014;53.076;18.208;2024-01-15T02:03:33;11.48;;;5.88;;
21705;SDS011;11014;53.076;18.208;2024-01-15T02:06:02;8.35;;;5.95;;
21705;SDS011;11014;53.076;18.208;2024-01-15T02:08:31;10.02;;;7.00;;
21705;SDS011;11014;53.076;18.208;2024-01-15T02:11:00;9.02;;;6.18;;
21705;SDS011;11014;53.076;18.208;2024-01-15T02:13:28;10.95;;;6.72;;
21705;SDS011;11014;53.076;18.208;2024-01-15T02:15:57;9.70;;;6.80;;
21705;SDS011;11014;53.076;18.208;2024-01-15T02:18:26;5.18;;;3.40;;
21705;SDS011;11014;53.076;18.208;2024-01-15T02:20:55;8.63;;;5.25;;
21705;SDS011;11014;53.076;18.208;2024-01-15T02:23:24;12.00;;;7.30;;
21705;SDS011;11014;53.076;18.208;2024-01-15T02:25:53;8.48;;;6.35;;
21705;SDS011;11014;53.076;18.208;2024-01-15T02:28:39;9.98;;;6.35;;
21705;SDS011;11014;53.076;18.208;2024-01-15T02:31:09;6.18;;;3.95;;
21705;SDS011;11014;53.076;18.208;2024-01-15T02:33:38;6.05;;;4.53;;
21705;SDS011;11014;53.076;18.208;2024-01-15T02:36:07;9.43;;;6.18;;
21705;SDS011;11014;53.076;18.208;2024-01-15T02:38:36;8.02;;;5.65;;
21705;SDS011;11014;53.076;18.208;2024-01-15T02:41:04;5.82;;;4.03;;
21705;SDS011;11014;53.076;18.208;2024-01-15T02:43:33;6.38;;;4.50;;
21705;SDS011;11014;53.076;18.208;2024-01-15T02:46:02;9.68;;;6.32;;
21705;SDS011;11014;53.076;18.208;2024-01-15T02:48:30;8.93;;;6.60;;
21705;SDS011;11014;53.076;18.208;2024-01-15T02:50:59;8.95;;;6.22;;
21705;SDS011;11014;53.076;18.208;2024-01-15T02:53:28;7.60;;;5.00;;
21705;SDS011;11014;53.076;18.208;2024-01-15T02:55:57;8.95;;;5.72;;
21705;SDS011;11014;53.076;18.208;2024-01-15T02:58:25;7.28;;;4.63;;
21705;SDS011;11014;53.076;18.208;2024-01-15T03:00:54;6.90;;;4.90;;
21705;SDS011;11014;53.076;18.208;2024-01-15T03:03:22;8.98;;;6.40;;
21705;SDS011;11014;53.076;18.208;2024-01-15T03:05:51;5.63;;;3.72;;
21705;SDS011;11014;53.076;18.208;2024-01-15T03:08:21;7.93;;;5.78;;
21705;SDS011;11014;53.076;18.208;2024-01-15T03:10:51;7.35;;;4.53;;
21705;SDS011;11014;53.076;18.208;2024-01-15T03:13:19;12.20;;;7.10;;
21705;SDS011;11014;53.076;18.208;2024-01-15T03:15:48;10.18;;;6.63;;
21705;SDS011;11014;53.076;18.208;2024-01-15T03:18:17;9.20;;;6.80;;
21705;SDS011;11014;53.076;18.208;2024-01-15T03:20:46;10.68;;;7.57;;
21705;SDS011;11014;53.076;18.208;2024-01-15T03:23:14;11.43;;;7.13;;
21705;SDS011;11014;53.076;18.208;2024-01-15T03:25:43;10.73;;;7.65;;
21705;SDS011;11014;53.076;18.208;2024-01-15T03:28:12;10.68;;;7.53;;
21705;SDS011;11014;53.076;18.208;2024-01-15T03:30:41;11.23;;;7.93;;
21705;SDS011;11014;53.076;18.208;2024-01-15T03:33:09;11.48;;;7.43;;
21705;SDS011;11014;53.076;18.208;2024-01-15T03:35:38;11.32;;;7.55;;
21705;SDS011;11014;53.076;18.208;2024-01-15T03:38:07;13.18;;;8.25;;
21705;SDS011;11014;53.076;18.208;2024-01-15T03:40:36;10.95;;;7.28;;
21705;SDS011;11014;53.076;18.208;2024-01-15T03:43:05;11.23;;;6.80;;
21705;SDS011;11014;53.076;18.208;2024-01-15T03:45:34;15.23;;;8.23;;
21705;SDS011;11014;53.076;18.208;2024-01-15T03:48:02;13.68;;;8.77;;
21705;SDS011;11014;53.076;18.208;2024-01-15T03:50:31;12.18;;;7.13;;
21705;SDS011;11014;53.076;18.208;2024-01-15T03:53:00;14.15;;;8.70;;
21705;SDS011;11014;53.076;18.208;2024-01-15T03:55:28;15.20;;;8.50;;
21705;SDS011;11014;53.076;18.208;2024-01-15T03:57:57;12.00;;;7.82;;
21705;SDS011;11014;53.076;18.208;2024-01-15T04:00:26;13.55;;;8.20;;
21705;SDS011;11014;53.076;18.208;2024-01-15T04:02:54;11.65;;;6.90;;
21705;SDS011;11014;53.076;18.208;2024-01-15T04:05:23;11.90;;;7.18;;
21705;SDS011;11014;53.076;18.208;2024-01-15T04:07:52;11.35;;;6.88;;
21705;SDS011;11014;53.076;18.208;2024-01-15T04:10:21;13.75;;;8.43;;
21705;SDS011;11014;53.076;18.208;2024-01-15T04:12:49;12.80;;;7.07;;
21705;SDS011;11014;53.076;18.208;2024-01-15T04:15:18;10.70;;;6.95;;
21705;SDS011;11014;53.076;18.208;2024-01-15T04:17:47;13.85;;;8.05;;
21705;SDS011;11014;53.076;18.208;2024-01-15T04:20:16;12.82;;;7.63;;
21705;SDS011;11014;53.076;18.208;2024-01-15T04:22:44;11.07;;;6.40;;
21705;SDS011;11014;53.076;18.208;2024-01-15T04:25:13;10.93;;;6.40;;
21705;SDS011;11014;53.076;18.208;2024-01-15T04:27:41;13.85;;;7.43;;
21705;SDS011;11014;53.076;18.208;2024-01-15T04:30:10;14.52;;;8.45;;
21705;SDS011;11014;53.076;18.208;2024-01-15T04:32:39;15.65;;;8.63;;
21705;SDS011;11014;53.076;18.208;2024-01-15T04:35:08;13.63;;;8.18;;
21705;SDS011;11014;53.076;18.208;2024-01-15T04:37:36;13.10;;;6.95;;
21705;SDS011;11014;53.076;18.208;2024-01-15T04:40:06;22.08;;;9.50;;
21705;SDS011;11014;53.076;18.208;2024-01-15T04:42:35;14.70;;;8.80;;
21705;SDS011;11014;53.076;18.208;2024-01-15T04:45:04;11.48;;;6.95;;
21705;SDS011;11014;53.076;18.208;2024-01-15T04:47:33;12.43;;;7.63;;
21705;SDS011;11014;53.076;18.208;2024-01-15T04:50:02;14.60;;;8.20;;
21705;SDS011;11014;53.076;18.208;2024-01-15T04:52:32;13.50;;;7.15;;
21705;SDS011;11014;53.076;18.208;2024-01-15T04:55:01;12.57;;;6.88;;
21705;SDS011;11014;53.076;18.208;2024-01-15T04:57:29;12.07;;;6.90;;
21705;SDS011;11014;53.076;18.208;2024-01-15T04:59:58;9.90;;;6.22;;
21705;SDS011;11014;53.076;18.208;2024-01-15T05:02:26;8.63;;;5.50;;
21705;SDS011;11014;53.076;18.208;2024-01-15T05:05:01;9.07;;;5.30;;
21705;SDS011;11014;53.076;18.208;2024-01-15T05:07:30;10.82;;;6.18;;
21705;SDS011;11014;53.076;18.208;2024-01-15T05:09:59;11.00;;;5.82;;
21705;SDS011;11014;53.076;18.208;2024-01-15T05:12:28;9.18;;;5.57;;
21705;SDS011;11014;53.076;18.208;2024-01-15T05:14:56;7.25;;;4.47;;
21705;SDS011;11014;53.076;18.208;2024-01-15T05:17:25;8.60;;;4.82;;
21705;SDS011;11014;53.076;18.208;2024-01-15T05:19:54;9.75;;;6.30;;
21705;SDS011;11014;53.076;18.208;2024-01-15T05:22:23;6.40;;;3.47;;
21705;SDS011;11014;53.076;18.208;2024-01-15T05:24:53;9.02;;;5.30;;
21705;SDS011;11014;53.076;18.208;2024-01-15T05:27:21;9.20;;;4.13;;
21705;SDS011;11014;53.076;18.208;2024-01-15T05:29:50;7.03;;;4.18;;
21705;SDS011;11014;53.076;18.208;2024-01-15T05:32:19;9.85;;;4.70;;
21705;SDS011;11014;53.076;18.208;2024-01-15T05:34:48;8.73;;;4.70;;
21705;SDS011;11014;53.076;18.208;2024-01-15T05:40:12;7.47;;;3.78;;
21705;SDS011;11014;53.076;18.208;2024-01-15T05:42:41;5.68;;;2.97;;
21705;SDS011;11014;53.076;18.208;2024-01-15T05:45:10;6.15;;;3.40;;
21705;SDS011;11014;53.076;18.208;2024-01-15T05:47:38;6.82;;;2.83;;
21705;SDS011;11014;53.076;18.208;2024-01-15T05:50:07;6.43;;;3.53;;
21705;SDS011;11014;53.076;18.208;2024-01-15T05:52:36;4.75;;;2.17;;
21705;SDS011;11014;53.076;18.208;2024-01-15T05:55:05;2.47;;;1.98;;
21705;SDS011;11014;53.076;18.208;2024-01-15T05:57:33;5.97;;;2.08;;
21705;SDS011;11014;53.076;18.208;2024-01-15T06:00:03;3.42;;;2.10;;
21705;SDS011;11014;53.076;18.208;2024-01-15T06:02:32;7.20;;;2.75;;
21705;SDS011;11014;53.076;18.208;2024-01-15T06:05:01;7.03;;;2.65;;
21705;SDS011;11014;53.076;18.208;2024-01-15T06:07:31;5.55;;;2.85;;
21705;SDS011;11014;53.076;18.208;2024-01-15T06:09:59;4.78;;;2.40;;
21705;SDS011;11014;53.076;18.208;2024-01-15T06:12:28;5.93;;;2.65;;
21705;SDS011;11014;53.076;18.208;2024-01-15T06:14:57;6.35;;;2.30;;
21705;SDS011;11014;53.076;18.208;2024-01-15T06:17:25;7.72;;;3.00;;
21705;SDS011;11014;53.076;18.208;2024-01-15T06:19:55;5.30;;;2.90;;
21705;SDS011;11014;53.076;18.208;2024-01-15T06:22:25;7.78;;;3.10;;
21705;SDS011;11014;53.076;18.208;2024-01-15T06:24:53;7.20;;;3.22;;
21705;SDS011;11014;53.076;18.208;2024-01-15T06:27:23;6.90;;;3.47;;
21705;SDS011;11014;53.076;18.208;2024-01-15T06:29:52;5.85;;;3.28;;
21705;SDS011;11014;53.076;18.208;2024-01-15T06:32:20;7.28;;;3.65;;
21705;SDS011;11014;53.076;18.208;2024-01-15T06:34:50;13.40;;;3.75;;
21705;SDS011;11014;53.076;18.208;2024-01-15T06:37:18;8.23;;;3.92;;
21705;SDS011;11014;53.076;18.208;2024-01-15T06:39:48;4.63;;;3.13;;
21705;SDS011;11014;53.076;18.208;2024-01-15T06:42:16;6.32;;;3.03;;
21705;SDS011;11014;53.076;18.208;2024-01-15T06:44:45;4.18;;;1.67;;
21705;SDS011;11014;53.076;18.208;2024-01-15T06:47:14;5.13;;;2.65;;
21705;SDS011;11014;53.076;18.208;2024-01-15T06:49:43;5.90;;;3.08;;
21705;SDS011;11014;53.076;18.208;2024-01-15T06:52:11;6.70;;;3.70;;
21705;SDS011;11014;53.076;18.208;2024-01-15T06:54:40;7.30;;;3.80;;
21705;SDS011;11014;53.076;18.208;2024-01-15T06:57:09;7.07;;;3.40;;
21705;SDS011;11014;53.076;18.208;2024-01-15T06:59:37;9.18;;;3.78;;
21705;SDS011;11014;53.076;18.208;2024-01-15T07:02:06;4.95;;;3.03;;
21705;SDS011;11014;53.076;18.208;2024-01-15T07:04:34;5.90;;;3.40;;
21705;SDS011;11014;53.076;18.208;2024-01-15T07:07:04;7.57;;;3.55;;
21705;SDS011;11014;53.076;18.208;2024-01-15T07:09:33;11.73;;;3.70;;
21705;SDS011;11014;53.076;18.208;2024-01-15T07:12:01;4.65;;;2.65;;
21705;SDS011;11014;53.076;18.208;2024-01-15T07:14:30;7.50;;;3.67;;
21705;SDS011;11014;53.076;18.208;2024-01-15T07:16:58;4.63;;;2.90;;
21705;SDS011;11014;53.076;18.208;2024-01-15T07:19:27;8.25;;;4.60;;
21705;SDS011;11014;53.076;18.208;2024-01-15T07:21:56;7.30;;;3.92;;
21705;SDS011;11014;53.076;18.208;2024-01-15T07:24:25;10.70;;;5.57;;
21705;SDS011;11014;53.076;18.208;2024-01-15T07:26:53;14.00;;;5.65;;
21705;SDS011;11014;53.076;18.208;2024-01-15T07:29:22;10.18;;;4.70;;
21705;SDS011;11014;53.076;18.208;2024-01-15T07:31:50;7.80;;;4.13;;
21705;SDS011;11014;53.076;18.208;2024-01-15T07:34:20;11.40;;;4.20;;
21705;SDS011;11014;53.076;18.208;2024-01-15T07:36:48;7.50;;;3.58;;
21705;SDS011;11014;53.076;18.208;2024-01-15T07:39:18;7.75;;;3.83;;
21705;SDS011;11014;53.076;18.208;2024-01-15T07:41:46;11.65;;;4.78;;
21705;SDS011;11014;53.076;18.208;2024-01-15T07:44:15;5.57;;;3.13;;
21705;SDS011;11014;53.076;18.208;2024-01-15T07:46:44;8.35;;;3.38;;
21705;SDS011;11014;53.076;18.208;2024-01-15T07:49:13;7.10;;;4.05;;
21705;SDS011;11014;53.076;18.208;2024-01-15T07:51:42;5.55;;;3.50;;
21705;SDS011;11014;53.076;18.208;2024-01-15T07:54:14;8.35;;;3.83;;
21705;SDS011;11014;53.076;18.208;2024-01-15T07:56:56;8.85;;;4.13;;
21705;SDS011;11014;53.076;18.208;2024-01-15T07:59:29;7.72;;;2.65;;
21705;SDS011;11014;53.076;18.208;2024-01-15T08:01:58;8.85;;;4.88;;
21705;SDS011;11014;53.076;18.208;2024-01-15T08:04:27;7.10;;;3.30;;
21705;SDS011;11014;53.076;18.208;2024-01-15T08:06:56;4.00;;;2.53;;
21705;SDS011;11014;53.076;18.208;2024-01-15T08:09:25;7.80;;;3.58;;
21705;SDS011;11014;53.076;18.208;2024-01-15T08:11:54;5.82;;;3.10;;
21705;SDS011;11014;53.076;18.208;2024-01-15T08:14:22;9.80;;;4.85;;
21705;SDS011;11014;53.076;18.208;2024-01-15T08:16:51;5.43;;;2.85;;
21705;SDS011;11014;53.076;18.208;2024-01-15T08:19:21;7.90;;;4.35;;
21705;SDS011;11014;53.076;18.208;2024-01-15T08:21:50;8.85;;;4.43;;
21705;SDS011;11014;53.076;18.208;2024-01-15T08:24:18;5.97;;;2.97;;
21705;SDS011;11014;53.076;18.208;2024-01-15T08:26:47;6.53;;;4.22;;
21705;SDS011;11014;53.076;18.208;2024-01-15T08:29:16;11.18;;;4.60;;
21705;SDS011;11014;53.076;18.208;2024-01-15T08:31:46;8.38;;;4.30;;
21705;SDS011;11014;53.076;18.208;2024-01-15T08:34:15;5.80;;;3.50;;
21705;SDS011;11014;53.076;18.208;2024-01-15T08:36:44;7.53;;;4.13;;
21705;SDS011;11014;53.076;18.208;2024-01-15T08:39:12;8.15;;;3.78;;
21705;SDS011;11014;53.076;18.208;2024-01-15T08:41:41;9.73;;;5.05;;
21705;SDS011;11014;53.076;18.208;2024-01-15T08:44:09;7.22;;;3.30;;
21705;SDS011;11014;53.076;18.208;2024-01-15T08:46:38;10.80;;;3.63;;
21705;SDS011;11014;53.076;18.208;2024-01-15T08:49:06;5.40;;;2.95;;
21705;SDS011;11014;53.076;18.208;2024-01-15T08:51:35;8.02;;;3.83;;
21705;SDS011;11014;53.076;18.208;2024-01-15T08:54:03;10.25;;;4.15;;
21705;SDS011;11014;53.076;18.208;2024-01-15T08:56:32;5.88;;;2.65;;
21705;SDS011;11014;53.076;18.208;2024-01-15T08:59:00;10.18;;;5.35;;
21705;SDS011;11014;53.076;18.208;2024-01-15T09:01:29;10.25;;;5.05;;
21705;SDS011;11014;53.076;18.208;2024-01-15T09:03:59;8.85;;;3.75;;
21705;SDS011;11014;53.076;18.208;2024-01-15T09:06:27;6.75;;;3.97;;
21705;SDS011;11014;53.076;18.208;2024-01-15T09:08:56;7.57;;;4.32;;
21705;SDS011;11014;53.076;18.208;2024-01-15T09:11:25;6.93;;;3.33;;
21705;SDS011;11014;53.076;18.208;2024-01-15T09:13:54;7.38;;;3.58;;
21705;SDS011;11014;53.076;18.208;2024-01-15T09:16:22;11.18;;;4.18;;
21705;SDS011;11014;53.076;18.208;2024-01-15T09:18:51;8.60;;;4.65;;
21705;SDS011;11014;53.076;18.208;2024-01-15T09:21:20;9.93;;;5.00;;
21705;SDS011;11014;53.076;18.208;2024-01-15T09:23:48;8.05;;;4.55;;
21705;SDS011;11014;53.076;18.208;2024-01-15T09:26:17;7.18;;;4.30;;
21705;SDS011;11014;53.076;18.208;2024-01-15T09:28:46;10.93;;;4.90;;
21705;SDS011;11014;53.076;18.208;2024-01-15T09:31:14;7.75;;;3.95;;
21705;SDS011;11014;53.076;18.208;2024-01-15T09:33:45;6.05;;;3.78;;
21705;SDS011;11014;53.076;18.208;2024-01-15T09:36:14;6.47;;;3.55;;
21705;SDS011;11014;53.076;18.208;2024-01-15T09:38:43;8.23;;;3.33;;
21705;SDS011;11014;53.076;18.208;2024-01-15T09:41:11;8.60;;;4.45;;
21705;SDS011;11014;53.076;18.208;2024-01-15T09:43:40;4.50;;;2.55;;
21705;SDS011;11014;53.076;18.208;2024-01-15T09:46:09;8.60;;;4.53;;
21705;SDS011;11014;53.076;18.208;2024-01-15T09:48:38;9.35;;;4.63;;
21705;SDS011;11014;53.076;18.208;2024-01-15T09:51:07;7.53;;;4.25;;
21705;SDS011;11014;53.076;18.208;2024-01-15T09:53:36;11.60;;;4.60;;
21705;SDS011;11014;53.076;18.208;2024-01-15T09:56:05;8.07;;;3.60;;
21705;SDS011;11014;53.076;18.208;2024-01-15T09:58:34;4.15;;;2.55;;
21705;SDS011;11014;53.076;18.208;2024-01-15T10:01:03;11.57;;;5.07;;
21705;SDS011;11014;53.076;18.208;2024-01-15T10:06:04;4.97;;;2.38;;
21705;SDS011;11014;53.076;18.208;2024-01-15T10:08:36;6.38;;;3.13;;
21705;SDS011;11014;53.076;18.208;2024-01-15T10:11:05;6.68;;;3.95;;
21705;SDS011;11014;53.076;18.208;2024-01-15T10:13:34;11.55;;;5.00;;
21705;SDS011;11014;53.076;18.208;2024-01-15T10:16:03;8.45;;;4.25;;
21705;SDS011;11014;53.076;18.208;2024-01-15T10:18:38;5.28;;;2.85;;
21705;SDS011;11014;53.076;18.208;2024-01-15T10:21:09;4.25;;;2.60;;
21705;SDS011;11014;53.076;18.208;2024-01-15T10:23:41;6.95;;;3.28;;
21705;SDS011;11014;53.076;18.208;2024-01-15T10:26:10;6.53;;;4.15;;
21705;SDS011;11014;53.076;18.208;2024-01-15T10:28:44;6.93;;;4.07;;
21705;SDS011;11014;53.076;18.208;2024-01-15T10:31:13;6.03;;;3.33;;
21705;SDS011;11014;53.076;18.208;2024-01-15T10:33:42;5.95;;;3.53;;
21705;SDS011;11014;53.076;18.208;2024-01-15T10:36:11;6.70;;;3.67;;
21705;SDS011;11014;53.076;18.208;2024-01-15T10:38:40;4.75;;;2.75;;
21705;SDS011;11014;53.076;18.208;2024-01-15T10:41:11;7.38;;;2.17;;
21705;SDS011;11014;53.076;18.208;2024-01-15T10:43:39;6.13;;;2.75;;
21705;SDS011;11014;53.076;18.208;2024-01-15T10:46:09;4.50;;;2.25;;
21705;SDS011;11014;53.076;18.208;2024-01-15T10:48:38;5.22;;;2.65;;
21705;SDS011;11014;53.076;18.208;2024-01-15T10:51:08;6.65;;;2.47;;
21705;SDS011;11014;53.076;18.208;2024-01-15T10:53:39;4.57;;;2.30;;
21705;SDS011;11014;53.076;18.208;2024-01-15T10:56:08;3.40;;;2.03;;
21705;SDS011;11014;53.076;18.208;2024-01-15T10:58:39;8.35;;;3.92;;
21705;SDS011;11014;53.076;18.208;2024-01-15T11:01:10;4.15;;;2.03;;
21705;SDS011;11014;53.076;18.208;2024-01-15T11:03:40;6.15;;;2.92;;
21705;SDS011;11014;53.076;18.208;2024-01-15T11:06:18;5.15;;;2.90;;
21705;SDS011;11014;53.076;18.208;2024-01-15T11:08:50;5.60;;;2.10;;
21705;SDS011;11014;53.076;18.208;2024-01-15T11:11:21;5.07;;;2.38;;
21705;SDS011;11014;53.076;18.208;2024-01-15T11:13:50;5.20;;;2.70;;
21705;SDS011;11014;53.076;18.208;2024-01-15T11:16:21;2.85;;;1.83;;
21705;SDS011;11014;53.076;18.208;2024-01-15T11:21:27;4.18;;;1.70;;
21705;SDS011;11014;53.076;18.208;2024-01-15T11:23:59;4.22;;;2.03;;
21705;SDS011;11014;53.076;18.208;2024-01-15T11:26:36;2.80;;;1.67;;
21705;SDS011;11014;53.076;18.208;2024-01-15T11:29:06;3.58;;;1.30;;
21705;SDS011;11014;53.076;18.208;2024-01-15T11:31:59;2.75;;;1.40;;
21705;SDS011;11014;53.076;18.208;2024-01-15T11:34:53;4.35;;;2.03;;
21705;SDS011;11014;53.076;18.208;2024-01-15T11:37:29;4.35;;;2.00;;
21705;SDS011;11014;53.076;18.208;2024-01-15T11:41:15;4.57;;;2.05;;
21705;SDS011;11014;53.076;18.208;2024-01-15T11:43:44;3.45;;;1.55;;
21705;SDS011;11014;53.076;18.208;2024-01-15T11:46:12;2.53;;;1.58;;
21705;SDS011;11014;53.076;18.208;2024-01-15T11:48:44;3.20;;;1.45;;
21705;SDS011;11014;53.076;18.208;2024-01-15T11:53:47;3.10;;;1.17;;
21705;SDS011;11014;53.076;18.208;2024-01-15T11:56:17;6.60;;;2.72;;
21705;SDS011;11014;53.076;18.208;2024-01-15T11:58:50;4.55;;;1.83;;
21705;SDS011;11014;53.076;18.208;2024-01-15T12:01:19;6.13;;;1.67;;
21705;SDS011;11014;53.076;18.208;2024-01-15T12:03:49;8.25;;;2.97;;
21705;SDS011;11014;53.076;18.208;2024-01-15T12:06:18;8.27;;;1.80;;
21705;SDS011;11014;53.076;18.208;2024-01-15T12:08:47;7.07;;;2.42;;
21705;SDS011;11014;53.076;18.208;2024-01-15T12:11:16;4.70;;;2.05;;
21705;SDS011;11014;53.076;18.208;2024-01-15T12:13:48;4.70;;;2.17;;
21705;SDS011;11014;53.076;18.208;2024-01-15T12:16:17;5.03;;;2.53;;
21705;SDS011;11014;53.076;18.208;2024-01-15T12:18:46;4.57;;;2.13;;
21705;SDS011;11014;53.076;18.208;2024-01-15T12:21:15;6.53;;;2.53;;
21705;SDS011;11014;53.076;18.208;2024-01-15T12:23:45;7.10;;;2.10;;
21705;SDS011;11014;53.076;18.208;2024-01-15T12:26:14;7.53;;;3.03;;
21705;SDS011;11014;53.076;18.208;2024-01-15T12:28:45;13.38;;;4.35;;
21705;SDS011;11014;53.076;18.208;2024-01-15T12:31:15;4.68;;;2.10;;
21705;SDS011;11014;53.076;18.208;2024-01-15T12:33:44;6.70;;;2.85;;
21705;SDS011;11014;53.076;18.208;2024-01-15T12:36:13;5.68;;;2.75;;
21705;SDS011;11014;53.076;18.208;2024-01-15T12:38:41;7.88;;;3.33;;
21705;SDS011;11014;53.076;18.208;2024-01-15T12:41:10;4.82;;;2.03;;
21705;SDS011;11014;53.076;18.208;2024-01-15T12:43:38;5.97;;;3.25;;
21705;SDS011;11014;53.076;18.208;2024-01-15T12:46:08;7.50;;;2.95;;
21705;SDS011;11014;53.076;18.208;2024-01-15T12:48:37;17.95;;;7.13;;
21705;SDS011;11014;53.076;18.208;2024-01-15T12:51:06;12.25;;;5.20;;
21705;SDS011;11014;53.076;18.208;2024-01-15T12:53:34;3.42;;;2.03;;
21705;SDS011;11014;53.076;18.208;2024-01-15T12:56:03;6.50;;;3.10;;
21705;SDS011;11014;53.076;18.208;2024-01-15T12:58:32;8.13;;;3.10;;
21705;SDS011;11014;53.076;18.208;2024-01-15T13:01:01;4.78;;;2.50;;
21705;SDS011;11014;53.076;18.208;2024-01-15T13:03:29;6.85;;;3.35;;
21705;SDS011;11014;53.076;18.208;2024-01-15T13:05:58;6.00;;;3.22;;
21705;SDS011;11014;53.076;18.208;2024-01-15T13:08:27;4.30;;;1.95;;
21705;SDS011;11014;53.076;18.208;2024-01-15T13:10:57;8.05;;;2.92;;
21705;SDS011;11014;53.076;18.208;2024-01-15T13:13:26;10.40;;;3.72;;
21705;SDS011;11014;53.076;18.208;2024-01-15T13:15:55;3.65;;;1.50;;
21705;SDS011;11014;53.076;18.208;2024-01-15T13:18:24;7.30;;;2.72;;
21705;SDS011;11014;53.076;18.208;2024-01-15T13:20:53;5.75;;;2.42;;
21705;SDS011;11014;53.076;18.208;2024-01-15T13:23:23;6.95;;;1.73;;
21705;SDS011;11014;53.076;18.208;2024-01-15T13:25:51;4.57;;;2.10;;
21705;SDS011;11014;53.076;18.208;2024-01-15T13:28:20;2.92;;;1.38;;
21705;SDS011;11014;53.076;18.208;2024-01-15T13:30:51;4.47;;;1.50;;
21705;SDS011;11014;53.076;18.208;2024-01-15T13:33:26;3.30;;;1.35;;
21705;SDS011;11014;53.076;18.208;2024-01-15T13:35:55;3.40;;;1.52;;
21705;SDS011;11014;53.076;18.208;2024-01-15T13:38:24;2.70;;;1.10;;
21705;SDS011;11014;53.076;18.208;2024-01-15T13:40:53;3.35;;;1.75;;
21705;SDS011;11014;53.076;18.208;2024-01-15T13:43:23;7.03;;;1.48;;
21705;SDS011;11014;53.076;18.208;2024-01-15T13:45:52;5.00;;;2.00;;
21705;SDS011;11014;53.076;18.208;2024-01-15T13:48:22;4.45;;;2.33;;
21705;SDS011;11014;53.076;18.208;2024-01-15T13:50:50;4.72;;;1.63;;
21705;SDS011;11014;53.076;18.208;2024-01-15T13:53:21;3.20;;;1.65;;
21705;SDS011;11014;53.076;18.208;2024-01-15T13:55:49;5.68;;;2.28;;
21705;SDS011;11014;53.076;18.208;2024-01-15T13:58:18;5.30;;;2.08;;
21705;SDS011;11014;53.076;18.208;2024-01-15T14:00:47;7.82;;;3.28;;
21705;SDS011;11014;53.076;18.208;2024-01-15T14:03:23;9.98;;;1.75;;
21705;SDS011;11014;53.076;18.208;2024-01-15T14:06:12;13.35;;;5.40;;
21705;SDS011;11014;53.076;18.208;2024-01-15T14:08:44;5.10;;;2.77;;
21705;SDS011;11014;53.076;18.208;2024-01-15T14:11:13;8.55;;;5.05;;
21705;SDS011;11014;53.076;18.208;2024-01-15T14:13:41;12.23;;;7.55;;
21705;SDS011;11014;53.076;18.208;2024-01-15T14:16:10;9.00;;;4.28;;
21705;SDS011;11014;53.076;18.208;2024-01-15T14:18:39;6.25;;;3.10;;
21705;SDS011;11014;53.076;18.208;2024-01-15T14:21:08;8.10;;;2.35;;
21705;SDS011;11014;53.076;18.208;2024-01-15T14:23:36;6.38;;;2.10;;
21705;SDS011;11014;53.076;18.208;2024-01-15T14:26:06;3.08;;;1.80;;
21705;SDS011;11014;53.076;18.208;2024-01-15T14:31:39;4.88;;;2.45;;
21705;SDS011;11014;53.076;18.208;2024-01-15T14:34:08;6.35;;;2.85;;
21705;SDS011;11014;53.076;18.208;2024-01-15T14:36:38;6.95;;;2.35;;
21705;SDS011;11014;53.076;18.208;2024-01-15T14:39:07;5.90;;;3.03;;
21705;SDS011;11014;53.076;18.208;2024-01-15T14:41:51;7.47;;;2.78;;
21705;SDS011;11014;53.076;18.208;2024-01-15T14:44:20;6.65;;;3.10;;
21705;SDS011;11014;53.076;18.208;2024-01-15T14:46:52;5.43;;;3.08;;
21705;SDS011;11014;53.076;18.208;2024-01-15T14:49:21;4.03;;;2.00;;
21705;SDS011;11014;53.076;18.208;2024-01-15T14:51:50;3.05;;;1.52;;
21705;SDS011;11014;53.076;18.208;2024-01-15T14:54:19;1.92;;;1.00;;
21705;SDS011;11014;53.076;18.208;2024-01-15T14:56:51;2.25;;;1.00;;
21705;SDS011;11014;53.076;18.208;2024-01-15T15:03:05;7.60;;;2.13;;